createdAt,value
2022-11-15T00:07:06.537Z,3.9
2022-11-15T00:14:38.847Z,3.1
2022-11-15T00:22:11.120Z,3.6
2022-11-15T00:29:43.397Z,4.5
2022-11-15T00:37:15.689Z,3.5
2022-11-15T00:44:47.959Z,4.2
2022-11-15T00:52:20.234Z,4.9
2022-11-15T00:59:52.507Z,3.4
2022-11-15T01:07:24.826Z,4.7
2022-11-15T01:14:57.109Z,2.3
2022-11-15T01:22:29.382Z,4.9
2022-11-15T01:30:01.656Z,4.0
2022-11-15T01:37:33.941Z,5.1
2022-11-15T01:45:06.231Z,4.7
2022-11-15T01:52:38.503Z,6.1
2022-11-15T02:00:10.779Z,3.1
2022-11-15T02:07:43.072Z,5.2
2022-11-15T02:15:15.344Z,5.5
2022-11-15T02:22:47.612Z,2.9
2022-11-15T02:30:19.879Z,4.8
2022-11-15T02:37:52.160Z,3.5
2022-11-15T02:45:24.435Z,2.6
2022-11-15T02:52:56.710Z,4.8
2022-11-15T03:00:29.057Z,2.8
2022-11-15T03:08:02.704Z,4.4
2022-11-15T03:15:35.151Z,5.7
2022-11-15T03:23:07.420Z,4.0
2022-11-15T03:30:39.683Z,4.2
2022-11-15T03:38:11.989Z,3.8
2022-11-15T03:45:44.478Z,5.5
2022-11-15T03:53:16.768Z,4.6
2022-11-15T04:00:49.096Z,3.8
2022-11-15T04:08:21.384Z,3.8
2022-11-15T04:15:53.675Z,5.1
2022-11-15T04:23:25.956Z,3.3
2022-11-15T04:30:58.227Z,3.7
2022-11-15T04:38:30.494Z,5.0
2022-11-15T04:46:02.783Z,3.5
2022-11-15T04:53:35.234Z,6.4
2022-11-15T05:01:07.587Z,4.5
2022-11-15T05:03:17.122Z,5.4
2022-11-15T05:04:04.404Z,7.7
2022-11-15T05:04:51.674Z,13.7
2022-11-15T05:05:38.982Z,10.2
2022-11-15T05:06:26.310Z,13.4
2022-11-15T05:07:13.627Z,12.7
2022-11-15T05:08:00.956Z,14.7
2022-11-15T05:08:48.249Z,9.1
2022-11-15T05:09:35.523Z,10.8
2022-11-15T05:10:22.787Z,12.6
2022-11-15T05:11:10.104Z,15.8
2022-11-15T05:11:57.381Z,12.1
2022-11-15T05:12:44.648Z,15.0
2022-11-15T05:13:32.092Z,16.7
2022-11-15T05:14:19.571Z,13.2
2022-11-15T05:15:06.831Z,10.9
2022-11-15T05:15:54.122Z,11.8
2022-11-15T05:16:41.421Z,11.3
2022-11-15T05:17:28.687Z,12.8
2022-11-15T05:18:20.725Z,14.8
2022-11-15T05:19:10.490Z,12.1
2022-11-15T05:19:57.844Z,10.4
2022-11-15T05:20:45.116Z,13.8
2022-11-15T05:21:32.392Z,11.6
2022-11-15T05:22:19.805Z,12.0
2022-11-15T05:23:07.087Z,11.8
2022-11-15T05:23:54.360Z,11.5
2022-11-15T05:24:41.756Z,14.8
2022-11-15T05:25:29.084Z,13.8
2022-11-15T05:26:16.357Z,14.8
2022-11-15T05:27:03.749Z,11.3
2022-11-15T05:27:51.028Z,13.0
2022-11-15T05:28:38.305Z,13.7
2022-11-15T05:29:25.702Z,14.2
2022-11-15T05:30:12.974Z,9.7
2022-11-15T05:31:00.240Z,7.4
2022-11-15T05:31:47.633Z,12.8
2022-11-15T05:32:34.905Z,8.9
2022-11-15T05:33:22.176Z,8.0
2022-11-15T05:34:09.568Z,10.5
2022-11-15T05:34:56.852Z,9.4
2022-11-15T05:35:44.286Z,13.7
2022-11-15T05:36:31.571Z,11.8
2022-11-15T05:37:18.831Z,10.1
2022-11-15T05:38:06.094Z,7.8
2022-11-15T05:38:53.523Z,6.7
2022-11-15T05:39:40.788Z,8.7
2022-11-15T05:40:28.067Z,7.4
2022-11-15T05:41:15.486Z,8.8
2022-11-15T05:42:02.759Z,11.4
2022-11-15T05:42:50.048Z,11.5
2022-11-15T05:43:37.463Z,4.9
2022-11-15T05:44:24.736Z,7.3
2022-11-15T05:45:12.006Z,7.5
2022-11-15T05:45:59.440Z,6.6
2022-11-15T05:46:46.707Z,9.7
2022-11-15T05:47:33.976Z,10.7
2022-11-15T05:48:21.411Z,11.7
2022-11-15T05:49:08.671Z,9.0
2022-11-15T05:49:55.953Z,7.3
2022-11-15T05:50:43.412Z,10.5
2022-11-15T05:51:30.676Z,11.3
2022-11-15T05:52:17.960Z,12.7
2022-11-15T05:53:05.613Z,18.6
2022-11-15T05:53:52.897Z,8.9
2022-11-15T05:54:40.181Z,13.2
2022-11-15T05:55:27.642Z,12.6
2022-11-15T05:56:14.917Z,6.5
2022-11-15T05:57:02.195Z,16.2
2022-11-15T05:57:49.614Z,5.5
2022-11-15T05:58:36.891Z,8.7
2022-11-15T05:59:24.172Z,11.7
2022-11-15T06:00:11.590Z,7.2
2022-11-15T06:00:58.867Z,7.0
2022-11-15T06:01:46.206Z,8.2
2022-11-15T06:02:33.675Z,6.6
2022-11-15T06:03:20.994Z,11.9
2022-11-15T06:04:08.259Z,7.9
2022-11-15T06:04:55.711Z,10.5
2022-11-15T06:05:43.012Z,17.7
2022-11-15T06:06:30.271Z,19.9
2022-11-15T06:07:17.807Z,17.4
2022-11-15T06:08:05.184Z,15.4
2022-11-15T06:08:52.483Z,24.5
2022-11-15T06:09:39.915Z,16.7
2022-11-15T06:10:27.195Z,21.2
2022-11-15T06:11:14.495Z,16.4
2022-11-15T06:12:01.900Z,20.7
2022-11-15T06:12:49.210Z,13.1
2022-11-15T06:13:36.517Z,19.9
2022-11-15T06:14:23.882Z,15.4
2022-11-15T06:15:11.171Z,12.0
2022-11-15T06:15:58.442Z,13.2
2022-11-15T06:16:45.845Z,10.5
2022-11-15T06:17:33.111Z,15.5
2022-11-15T06:18:20.393Z,11.3
2022-11-15T06:19:07.788Z,15.6
2022-11-15T06:19:55.054Z,15.9
2022-11-15T06:20:42.328Z,11.9
2022-11-15T06:21:29.721Z,12.9
2022-11-15T06:22:17.027Z,11.1
2022-11-15T06:23:04.330Z,10.7
2022-11-15T06:23:51.726Z,10.3
2022-11-15T06:24:39.006Z,15.1
2022-11-15T06:25:26.286Z,12.5
2022-11-15T06:26:13.707Z,55.7
2022-11-15T06:27:00.972Z,51.6
2022-11-15T06:27:48.253Z,22.8
2022-11-15T06:28:35.642Z,29.0
2022-11-15T06:29:23.039Z,13.4
2022-11-15T06:30:10.308Z,20.1
2022-11-15T06:30:57.689Z,15.2
2022-11-15T06:31:44.976Z,16.5
2022-11-15T06:32:32.438Z,13.4
2022-11-15T06:33:19.711Z,25.0
2022-11-15T06:34:06.981Z,18.8
2022-11-15T06:34:54.315Z,16.8
2022-11-15T06:35:41.645Z,19.2
2022-11-15T06:36:28.919Z,16.9
2022-11-15T06:37:16.216Z,64.6
2022-11-15T06:38:03.541Z,35.9
2022-11-15T06:38:50.850Z,54.3
2022-11-15T06:39:38.157Z,76.1
2022-11-15T06:40:25.522Z,82.3
2022-11-15T06:41:12.813Z,43.0
2022-11-15T06:42:00.104Z,29.9
2022-11-15T06:42:47.455Z,31.4
2022-11-15T06:43:34.888Z,36.4
2022-11-15T06:44:22.251Z,34.9
2022-11-15T06:45:09.626Z,33.3
2022-11-15T06:45:56.895Z,23.7
2022-11-15T06:46:44.180Z,29.9
2022-11-15T06:47:31.565Z,39.8
2022-11-15T06:48:18.847Z,28.8
2022-11-15T06:49:09.583Z,29.5
2022-11-15T06:49:57.215Z,34.4
2022-11-15T06:50:44.627Z,29.2
2022-11-15T06:51:31.905Z,29.9
2022-11-15T06:52:19.187Z,57.6
2022-11-15T06:53:06.595Z,110.6
2022-11-15T06:53:53.902Z,80.9
2022-11-15T06:54:41.208Z,36.4
2022-11-15T06:55:28.600Z,35.3
2022-11-15T06:56:15.905Z,57.0
2022-11-15T06:57:03.192Z,63.4
2022-11-15T06:57:50.594Z,58.1
2022-11-15T06:58:37.891Z,44.4
2022-11-15T06:59:25.180Z,45.2
2022-11-15T07:00:12.567Z,39.8
2022-11-15T07:00:59.925Z,43.0
2022-11-15T07:01:47.328Z,29.5
2022-11-15T07:02:34.748Z,35.8
2022-11-15T07:03:22.050Z,37.3
2022-11-15T07:04:09.338Z,36.0
2022-11-15T07:04:56.741Z,28.6
2022-11-15T07:05:44.032Z,80.6
2022-11-15T07:06:31.329Z,101.8
2022-11-15T07:07:18.716Z,126.9
2022-11-15T07:08:06.059Z,99.6
2022-11-15T07:08:53.352Z,69.4
2022-11-15T07:09:40.712Z,64.0
2022-11-15T07:10:28.054Z,74.8
2022-11-15T07:11:15.392Z,43.8
2022-11-15T07:12:07.471Z,57.5
2022-11-15T07:12:55.250Z,50.8
2022-11-15T07:13:42.555Z,40.5
2022-11-15T07:14:29.848Z,41.9
2022-11-15T07:15:17.141Z,44.5
2022-11-15T07:16:04.523Z,34.9
2022-11-15T07:16:51.810Z,36.7
2022-11-15T07:17:39.087Z,41.3
2022-11-15T07:18:26.498Z,33.8
2022-11-15T07:19:13.786Z,36.5
2022-11-15T07:20:01.073Z,35.7
2022-11-15T07:20:48.472Z,37.7
2022-11-15T07:21:35.764Z,32.5
2022-11-15T07:22:23.036Z,31.6
2022-11-15T07:23:10.497Z,28.9
2022-11-15T07:23:57.770Z,27.5
2022-11-15T07:24:45.054Z,24.7
2022-11-15T07:25:32.461Z,20.1
2022-11-15T07:26:19.923Z,31.3
2022-11-15T07:27:07.259Z,26.5
2022-11-15T07:27:54.680Z,33.6
2022-11-15T07:28:42.383Z,18.4
2022-11-15T07:29:29.659Z,27.4
2022-11-15T07:30:17.016Z,94.0
2022-11-15T07:31:04.316Z,100.0
2022-11-15T07:31:51.612Z,63.4
2022-11-15T07:32:38.952Z,42.3
2022-11-15T07:33:26.245Z,51.6
2022-11-15T07:34:13.550Z,39.8
2022-11-15T07:35:00.880Z,36.2
2022-11-15T07:35:48.176Z,29.0
2022-11-15T07:36:35.449Z,44.9
2022-11-15T07:37:22.778Z,41.9
2022-11-15T07:38:10.059Z,30.3
2022-11-15T07:38:57.359Z,29.2
2022-11-15T07:39:44.674Z,21.3
2022-11-15T07:40:31.950Z,16.3
2022-11-15T07:41:19.218Z,18.2
2022-11-15T07:42:06.812Z,17.8
2022-11-15T07:42:54.106Z,13.8
2022-11-15T07:43:41.388Z,15.0
2022-11-15T07:44:28.695Z,13.4
2022-11-15T07:45:15.972Z,15.5
2022-11-15T07:46:03.264Z,13.3
2022-11-15T07:46:50.556Z,12.5
2022-11-15T07:47:37.824Z,15.4
2022-11-15T07:48:25.096Z,14.9
2022-11-15T07:49:12.431Z,13.7
2022-11-15T07:49:59.797Z,18.1
2022-11-15T07:50:47.085Z,14.9
2022-11-15T07:51:34.391Z,15.9
2022-11-15T07:52:21.669Z,16.3
2022-11-15T07:53:08.944Z,25.5
2022-11-15T07:53:56.280Z,28.0
2022-11-15T07:54:43.588Z,44.4
2022-11-15T07:55:30.892Z,85.4
2022-11-15T07:56:18.219Z,91.9
2022-11-15T07:57:07.632Z,70.5
2022-11-15T07:57:55.128Z,60.0
2022-11-15T07:58:42.445Z,61.9
2022-11-15T07:59:29.749Z,55.8
2022-11-15T08:00:17.060Z,52.4
2022-11-15T08:01:04.523Z,51.3
2022-11-15T08:01:52.001Z,42.3
2022-11-15T08:02:39.549Z,28.7
2022-11-15T08:03:26.918Z,27.0
2022-11-15T08:04:14.199Z,26.9
2022-11-15T08:05:01.503Z,24.7
2022-11-15T08:05:48.781Z,39.6
2022-11-15T08:06:36.068Z,26.7
2022-11-15T08:07:23.554Z,24.7
2022-11-15T08:08:10.935Z,22.7
2022-11-15T08:08:58.217Z,23.0
2022-11-15T08:09:45.505Z,34.5
2022-11-15T08:10:37.724Z,24.7
2022-11-15T08:11:27.640Z,24.1
2022-11-15T08:12:14.989Z,20.6
2022-11-15T08:13:02.333Z,19.3
2022-11-15T08:13:49.675Z,18.5
2022-11-15T08:14:37.079Z,18.9
2022-11-15T08:15:24.350Z,15.9
2022-11-15T08:16:11.623Z,19.6
2022-11-15T08:16:59.021Z,12.1
2022-11-15T08:17:46.304Z,14.2
2022-11-15T08:18:33.595Z,14.9
2022-11-15T08:19:20.983Z,17.1
2022-11-15T08:20:08.255Z,20.4
2022-11-15T08:20:55.531Z,16.8
2022-11-15T08:21:43.424Z,19.4
2022-11-15T08:22:30.963Z,18.9
2022-11-15T08:23:18.279Z,35.9
2022-11-15T08:24:05.576Z,37.0
2022-11-15T08:24:52.968Z,22.7
2022-11-15T08:25:40.241Z,22.2
2022-11-15T08:26:27.539Z,28.7
2022-11-15T08:27:14.926Z,21.4
2022-11-15T08:28:02.348Z,19.1
2022-11-15T08:28:49.676Z,14.1
2022-11-15T08:29:37.055Z,22.3
2022-11-15T08:30:24.417Z,11.8
2022-11-15T08:31:11.697Z,27.3
2022-11-15T08:31:59.061Z,33.8
2022-11-15T08:32:46.386Z,16.4
2022-11-15T08:33:34.049Z,15.9
2022-11-15T08:34:21.633Z,22.1
2022-11-15T08:35:09.133Z,26.5
2022-11-15T08:35:56.414Z,17.1
2022-11-15T08:36:46.140Z,19.3
2022-11-15T08:37:33.662Z,19.8
2022-11-15T08:38:20.956Z,17.1
2022-11-15T08:39:08.506Z,25.8
2022-11-15T08:39:55.852Z,21.4
2022-11-15T08:40:43.233Z,21.2
2022-11-15T08:41:30.509Z,26.5
2022-11-15T08:42:20.050Z,27.1
2022-11-15T08:43:07.629Z,19.7
2022-11-15T08:43:54.952Z,15.6
2022-11-15T08:44:42.231Z,16.0
2022-11-15T08:45:29.502Z,22.3
2022-11-15T08:46:16.890Z,10.8
2022-11-15T08:47:04.181Z,16.1
2022-11-15T08:47:54.376Z,15.2
2022-11-15T08:48:42.087Z,17.3
2022-11-15T08:49:29.490Z,16.7
2022-11-15T08:50:16.779Z,16.6
2022-11-15T08:51:04.067Z,16.7
2022-11-15T08:51:51.496Z,19.0
2022-11-15T08:52:38.787Z,16.4
2022-11-15T08:53:26.055Z,18.2
2022-11-15T08:54:13.501Z,12.5
2022-11-15T08:55:00.781Z,13.2
2022-11-15T08:55:48.054Z,14.9
2022-11-15T08:56:35.492Z,13.0
2022-11-15T08:57:22.788Z,14.1
2022-11-15T08:58:10.058Z,9.7
2022-11-15T08:58:57.505Z,13.4
2022-11-15T08:59:45.134Z,18.7
2022-11-15T09:00:32.410Z,9.2
2022-11-15T09:01:19.966Z,19.8
2022-11-15T09:02:07.429Z,11.1
2022-11-15T09:02:54.744Z,12.6
2022-11-15T09:03:42.185Z,12.8
2022-11-15T09:04:29.465Z,15.3
2022-11-15T09:05:16.785Z,8.9
2022-11-15T09:06:04.175Z,11.0
2022-11-15T09:06:51.513Z,15.3
2022-11-15T09:07:38.862Z,22.8
2022-11-15T09:08:46.431Z,20.5
2022-11-15T09:09:23.698Z,32.6
2022-11-15T09:10:11.039Z,41.2
2022-11-15T09:10:58.316Z,40.4
2022-11-15T09:11:45.600Z,40.9
2022-11-15T09:12:32.956Z,35.8
2022-11-15T09:13:20.235Z,31.7
2022-11-15T09:14:07.534Z,38.8
2022-11-15T09:14:54.907Z,37.7
2022-11-15T09:15:42.200Z,41.4
2022-11-15T09:16:29.482Z,24.0
2022-11-15T09:17:21.693Z,22.8
2022-11-15T09:18:11.643Z,18.7
2022-11-15T09:18:59.047Z,21.6
2022-11-15T09:19:46.344Z,26.8
2022-11-15T09:20:33.653Z,18.2
2022-11-15T09:21:21.032Z,18.8
2022-11-15T09:22:08.313Z,20.2
2022-11-15T09:22:55.628Z,21.1
2022-11-15T09:23:42.999Z,24.1
2022-11-15T09:24:30.585Z,11.7
2022-11-15T09:25:17.919Z,23.7
2022-11-15T09:26:05.338Z,18.9
2022-11-15T09:26:52.613Z,12.2
2022-11-15T09:27:39.892Z,21.6
2022-11-15T09:28:27.425Z,15.4
2022-11-15T09:29:14.707Z,10.3
2022-11-15T09:30:02.050Z,22.0
2022-11-15T09:30:49.414Z,21.5
2022-11-15T09:31:36.698Z,12.9
2022-11-15T09:32:23.972Z,21.2
2022-11-15T09:33:11.405Z,25.1
2022-11-15T09:33:58.681Z,17.2
2022-11-15T09:34:45.964Z,24.0
2022-11-15T09:35:33.395Z,22.3
2022-11-15T09:36:20.693Z,13.8
2022-11-15T09:37:08.051Z,18.3
2022-11-15T09:37:56.566Z,15.6
2022-11-15T09:38:43.987Z,15.0
2022-11-15T09:39:31.460Z,43.4
2022-11-15T09:40:18.748Z,16.3
2022-11-15T09:41:06.020Z,26.4
2022-11-15T09:41:53.318Z,15.0
2022-11-15T09:42:40.656Z,20.0
2022-11-15T09:43:27.945Z,22.1
2022-11-15T09:44:15.221Z,26.9
2022-11-15T09:45:02.510Z,27.9
2022-11-15T09:45:49.786Z,20.3
2022-11-15T09:46:37.063Z,23.1
2022-11-15T09:47:24.344Z,15.3
2022-11-15T09:48:11.621Z,24.5
2022-11-15T09:48:59.110Z,24.7
2022-11-15T09:49:46.379Z,23.1
2022-11-15T09:50:33.669Z,33.5
2022-11-15T09:51:20.957Z,33.2
2022-11-15T09:52:08.239Z,18.8
2022-11-15T09:52:55.516Z,16.6
2022-11-15T09:54:37.599Z,22.6
2022-11-15T09:54:56.225Z,42.1
2022-11-15T09:55:37.460Z,76.8
2022-11-15T09:56:25.150Z,101.2
2022-11-15T09:57:16.051Z,68.2
2022-11-15T09:58:03.697Z,85.9
2022-11-15T09:58:51.098Z,70.3
2022-11-15T09:59:38.363Z,118.9
2022-11-15T10:01:22.929Z,91.8
2022-11-15T10:02:10.534Z,119.7
2022-11-15T10:02:58.111Z,166.0
2022-11-15T10:03:45.428Z,235.9
2022-11-15T10:04:32.743Z,141.6
2022-11-15T10:05:20.050Z,128.3
2022-11-15T10:06:07.363Z,96.8
2022-11-15T10:06:54.734Z,95.6
2022-11-15T10:07:42.051Z,67.7
2022-11-15T10:08:29.524Z,31.9
2022-11-15T10:09:19.985Z,34.4
2022-11-15T10:10:09.898Z,32.5
2022-11-15T10:11:22.776Z,26.0
2022-11-15T10:11:54.595Z,20.1
2022-11-15T10:12:41.982Z,24.7
2022-11-15T10:13:29.300Z,22.8
2022-11-15T10:14:16.588Z,18.9
2022-11-15T10:15:03.963Z,22.1
2022-11-15T10:15:51.507Z,15.9
2022-11-15T10:16:38.802Z,25.6
2022-11-15T10:17:26.164Z,19.9
2022-11-15T10:18:13.418Z,17.3
2022-11-15T10:19:00.748Z,27.2
2022-11-15T10:19:48.121Z,21.2
2022-11-15T10:20:35.464Z,22.3
2022-11-15T10:21:22.799Z,19.6
2022-11-15T10:22:10.678Z,18.2
2022-11-15T10:22:58.289Z,15.7
2022-11-15T10:23:45.584Z,23.6
2022-11-15T10:24:32.867Z,19.7
2022-11-15T10:25:20.303Z,13.8
2022-11-15T10:26:07.582Z,16.2
2022-11-15T10:26:54.871Z,21.1
2022-11-15T10:27:42.288Z,18.1
2022-11-15T10:28:29.853Z,12.5
2022-11-15T10:29:17.508Z,13.3
2022-11-15T10:30:04.941Z,13.0
2022-11-15T10:30:52.236Z,19.1
2022-11-15T10:31:39.538Z,13.1
2022-11-15T10:32:26.958Z,12.2
2022-11-15T10:33:14.267Z,15.5
2022-11-15T10:34:01.540Z,15.9
2022-11-15T10:34:48.949Z,12.5
2022-11-15T10:35:36.231Z,22.8
2022-11-15T10:36:23.502Z,23.3
2022-11-15T10:37:10.954Z,20.0
2022-11-15T10:37:58.247Z,20.3
2022-11-15T10:38:45.547Z,24.3
2022-11-15T10:39:32.935Z,15.0
2022-11-15T10:40:20.206Z,25.9
2022-11-15T10:41:07.619Z,18.8
2022-11-15T10:41:54.945Z,18.4
2022-11-15T10:42:42.228Z,10.9
2022-11-15T10:43:29.566Z,14.8
2022-11-15T10:44:16.986Z,15.4
2022-11-15T10:45:04.309Z,18.3
2022-11-15T10:45:51.593Z,13.3
2022-11-15T10:46:46.460Z,20.9
2022-11-15T10:47:39.265Z,13.2
2022-11-15T10:48:26.914Z,12.8
2022-11-15T10:49:14.339Z,19.4
2022-11-15T10:50:01.624Z,12.5
2022-11-15T10:50:48.922Z,16.6
2022-11-15T10:51:36.303Z,16.2
2022-11-15T10:52:23.602Z,15.5
2022-11-15T10:53:10.880Z,21.2
2022-11-15T10:53:58.272Z,17.2
2022-11-15T10:54:45.569Z,20.6
2022-11-15T10:55:32.876Z,19.2
2022-11-15T10:56:20.243Z,17.5
2022-11-15T10:57:07.519Z,12.4
2022-11-15T10:57:54.817Z,25.5
2022-11-15T10:58:42.206Z,16.4
2022-11-15T10:59:31.050Z,16.1
2022-11-15T11:00:19.965Z,12.0
2022-11-15T11:01:07.401Z,14.9
2022-11-15T11:01:54.711Z,12.8
2022-11-15T11:02:41.983Z,14.6
2022-11-15T11:03:29.401Z,17.5
2022-11-15T11:04:16.680Z,16.8
2022-11-15T11:05:03.989Z,16.0
2022-11-15T11:05:51.373Z,10.4
2022-11-15T11:06:38.652Z,16.1
2022-11-15T11:07:25.968Z,8.3
2022-11-15T11:08:13.323Z,14.2
2022-11-15T11:09:00.608Z,20.7
2022-11-15T11:09:47.885Z,13.6
2022-11-15T11:10:52.386Z,12.2
2022-11-15T11:11:32.540Z,11.7
2022-11-15T11:12:19.904Z,11.0
2022-11-15T11:13:07.391Z,12.0
2022-11-15T11:13:54.688Z,9.8
2022-11-15T11:14:42.103Z,10.4
2022-11-15T11:15:29.388Z,10.5
2022-11-15T11:16:16.707Z,11.8
2022-11-15T11:17:04.209Z,8.7
2022-11-15T11:17:51.495Z,8.0
2022-11-15T11:18:38.774Z,7.9
2022-11-15T11:19:26.770Z,13.7
2022-11-15T11:20:14.204Z,10.6
2022-11-15T11:21:01.487Z,9.0
2022-11-15T11:21:48.795Z,11.0
2022-11-15T11:22:36.084Z,9.3
2022-11-15T11:23:23.356Z,9.0
2022-11-15T11:24:10.652Z,8.2
2022-11-15T11:24:58.023Z,9.1
2022-11-15T11:25:45.325Z,7.1
2022-11-15T11:26:32.589Z,7.7
2022-11-15T11:27:19.950Z,7.6
2022-11-15T11:28:07.394Z,9.0
2022-11-15T11:28:54.668Z,9.6
2022-11-15T11:29:42.052Z,12.6
2022-11-15T11:30:29.351Z,10.4
2022-11-15T11:31:16.639Z,10.5
2022-11-15T11:32:04.022Z,9.2
2022-11-15T11:32:54.964Z,6.7
2022-11-15T11:33:42.778Z,6.5
2022-11-15T11:34:30.121Z,7.1
2022-11-15T11:35:17.402Z,9.3
2022-11-15T11:36:04.686Z,12.2
2022-11-15T11:36:52.037Z,9.0
2022-11-15T11:37:39.331Z,8.5
2022-11-15T11:38:26.618Z,7.8
2022-11-15T11:39:13.968Z,15.4
2022-11-15T11:40:02.210Z,5.5
2022-11-15T11:40:52.290Z,8.6
2022-11-15T11:41:39.618Z,10.5
2022-11-15T11:42:26.912Z,7.5
2022-11-15T11:43:14.215Z,10.4
2022-11-15T11:44:01.571Z,6.0
2022-11-15T11:44:48.856Z,8.1
2022-11-15T11:45:36.144Z,8.2
2022-11-15T11:46:23.537Z,9.7
2022-11-15T11:47:10.826Z,6.8
2022-11-15T11:47:58.105Z,8.2
2022-11-15T11:48:45.521Z,10.0
2022-11-15T11:49:32.804Z,7.8
2022-11-15T11:50:20.107Z,7.8
2022-11-15T11:51:07.482Z,6.9
2022-11-15T11:51:54.764Z,9.2
2022-11-15T11:52:42.072Z,6.6
2022-11-15T11:53:29.456Z,7.1
2022-11-15T11:54:16.741Z,10.1
2022-11-15T11:55:04.049Z,8.4
2022-11-15T11:55:51.450Z,10.9
2022-11-15T11:56:38.719Z,8.8
2022-11-15T11:57:26.011Z,8.8
2022-11-15T11:58:13.405Z,7.4
2022-11-15T11:59:00.700Z,25.5
2022-11-15T11:59:48.020Z,15.6
2022-11-15T12:00:35.396Z,13.0
2022-11-15T12:01:22.676Z,17.0
2022-11-15T12:02:10.059Z,19.7
2022-11-15T12:02:57.482Z,16.8
2022-11-15T12:03:44.806Z,16.5
2022-11-15T12:04:32.095Z,19.8
2022-11-15T12:05:19.538Z,19.0
2022-11-15T12:06:06.810Z,19.4
2022-11-15T12:06:54.387Z,23.5
2022-11-15T12:07:41.799Z,18.7
2022-11-15T12:08:29.416Z,22.1
2022-11-15T12:09:17.083Z,25.2
2022-11-15T12:10:04.431Z,20.0
2022-11-15T12:10:51.710Z,18.4
2022-11-15T12:11:38.988Z,14.9
2022-11-15T12:12:26.416Z,17.8
2022-11-15T12:13:13.696Z,19.3
2022-11-15T12:14:01.004Z,19.2
2022-11-15T12:14:48.415Z,26.9
2022-11-15T12:15:35.695Z,21.7
2022-11-15T12:16:22.944Z,23.7
2022-11-15T12:17:10.434Z,21.1
2022-11-15T12:17:57.720Z,26.7
2022-11-15T12:18:45.475Z,32.1
2022-11-15T12:19:32.812Z,21.8
2022-11-15T12:20:20.145Z,14.9
2022-11-15T12:21:07.425Z,33.8
2022-11-15T12:21:54.896Z,27.7
2022-11-15T12:22:42.187Z,19.1
2022-11-15T12:23:29.460Z,11.7
2022-11-15T12:24:16.824Z,14.4
2022-11-15T12:25:04.111Z,22.2
2022-11-15T12:25:51.400Z,18.0
2022-11-15T12:26:38.717Z,17.2
2022-11-15T12:27:26.876Z,14.4
2022-11-15T12:28:14.330Z,9.5
2022-11-15T12:29:09.337Z,11.0
2022-11-15T12:29:56.708Z,14.4
2022-11-15T12:30:44.116Z,23.3
2022-11-15T12:31:31.402Z,24.5
2022-11-15T12:32:18.687Z,19.3
2022-11-15T12:33:07.168Z,16.3
2022-11-15T12:33:54.708Z,18.8
2022-11-15T12:34:42.081Z,15.2
2022-11-15T12:35:29.384Z,19.2
2022-11-15T12:36:16.674Z,17.6
2022-11-15T12:37:03.982Z,16.0
2022-11-15T12:37:51.289Z,14.5
2022-11-15T12:38:38.573Z,14.0
2022-11-15T12:39:25.873Z,14.1
2022-11-15T12:40:13.166Z,14.0
2022-11-15T12:41:00.469Z,11.0
2022-11-15T12:41:47.775Z,16.2
2022-11-15T12:42:35.060Z,17.9
2022-11-15T12:43:22.332Z,13.8
2022-11-15T12:44:09.674Z,13.8
2022-11-15T12:44:57.033Z,9.5
2022-11-15T12:45:44.333Z,13.3
2022-11-15T12:46:31.717Z,12.5
2022-11-15T12:47:23.101Z,11.9
2022-11-15T12:48:10.567Z,17.5
2022-11-15T12:48:57.972Z,9.9
2022-11-15T12:49:45.287Z,10.2
2022-11-15T12:50:32.575Z,21.1
2022-11-15T12:51:19.976Z,9.6
2022-11-15T12:52:07.261Z,7.6
2022-11-15T12:52:54.533Z,16.1
2022-11-15T12:53:41.968Z,8.3
2022-11-15T12:54:29.251Z,14.1
2022-11-15T12:55:16.551Z,9.6
2022-11-15T12:56:03.992Z,13.0
2022-11-15T12:56:51.278Z,10.7
2022-11-15T12:57:38.573Z,11.5
2022-11-15T12:58:25.989Z,9.3
2022-11-15T12:59:13.298Z,8.3
2022-11-15T13:00:00.566Z,10.8
2022-11-15T13:00:48.034Z,14.2
2022-11-15T13:01:35.446Z,11.7
2022-11-15T13:02:22.850Z,9.5
2022-11-15T13:03:10.294Z,10.4
2022-11-15T13:03:57.599Z,14.4
2022-11-15T13:04:44.883Z,8.2
2022-11-15T13:05:32.331Z,12.2
2022-11-15T13:06:19.668Z,12.3
2022-11-15T13:07:06.981Z,9.8
2022-11-15T13:07:54.588Z,8.0
2022-11-15T13:08:41.907Z,11.1
2022-11-15T13:09:29.248Z,8.7
2022-11-15T13:10:16.679Z,8.7
2022-11-15T13:11:03.956Z,10.0
2022-11-15T13:11:51.361Z,12.9
2022-11-15T13:12:38.685Z,7.4
2022-11-15T13:13:26.378Z,8.6
2022-11-15T13:14:13.726Z,9.8
2022-11-15T13:15:01.148Z,13.8
2022-11-15T13:15:48.443Z,10.0
2022-11-15T13:16:35.721Z,15.5
2022-11-15T13:17:23.176Z,10.3
2022-11-15T13:18:10.635Z,13.4
2022-11-15T13:18:57.924Z,11.1
2022-11-15T13:19:45.372Z,19.3
2022-11-15T13:20:32.651Z,8.9
2022-11-15T13:21:19.959Z,14.8
2022-11-15T13:22:07.879Z,9.7
2022-11-15T13:22:55.393Z,10.2
2022-11-15T13:23:42.706Z,9.6
2022-11-15T13:24:29.989Z,8.5
2022-11-15T13:25:17.429Z,12.9
2022-11-15T13:26:04.698Z,7.7
2022-11-15T13:26:51.984Z,24.5
2022-11-15T13:27:39.393Z,13.3
2022-11-15T13:28:26.675Z,11.0
2022-11-15T13:29:13.961Z,14.1
2022-11-15T13:30:01.497Z,11.1
2022-11-15T13:30:48.786Z,8.9
2022-11-15T13:31:36.059Z,9.1
2022-11-15T13:32:23.619Z,15.9
2022-11-15T13:33:10.900Z,9.6
2022-11-15T13:33:58.178Z,10.7
2022-11-15T13:34:51.424Z,11.4
2022-11-15T13:35:39.871Z,15.6
2022-11-15T13:36:27.311Z,17.8
2022-11-15T13:37:14.606Z,30.2
2022-11-15T13:38:01.905Z,46.4
2022-11-15T13:38:49.368Z,45.1
2022-11-15T13:39:36.697Z,31.7
2022-11-15T13:40:24.007Z,33.0
2022-11-15T13:41:11.446Z,32.4
2022-11-15T13:41:58.740Z,37.6
2022-11-15T13:42:46.137Z,33.7
2022-11-15T13:43:33.484Z,34.2
2022-11-15T13:44:20.788Z,36.7
2022-11-15T13:45:08.095Z,31.6
2022-11-15T13:45:55.481Z,32.9
2022-11-15T13:46:42.776Z,32.7
2022-11-15T13:47:30.117Z,28.2
2022-11-15T13:48:17.485Z,25.6
2022-11-15T13:49:04.776Z,26.1
2022-11-15T13:49:52.077Z,27.1
2022-11-15T13:50:39.554Z,21.8
2022-11-15T13:51:26.800Z,26.9
2022-11-15T13:52:14.085Z,26.2
2022-11-15T13:53:01.490Z,19.7
2022-11-15T13:53:48.826Z,19.2
2022-11-15T13:54:36.108Z,21.1
2022-11-15T13:55:23.739Z,18.1
2022-11-15T13:56:11.042Z,26.3
2022-11-15T13:56:58.335Z,15.9
2022-11-15T13:57:45.741Z,17.9
2022-11-15T13:58:33.440Z,17.0
2022-11-15T13:59:20.991Z,44.0
2022-11-15T14:00:08.363Z,17.3
2022-11-15T14:00:55.651Z,17.7
2022-11-15T14:01:42.982Z,20.1
2022-11-15T14:02:30.298Z,18.5
2022-11-15T14:03:17.583Z,17.2
2022-11-15T14:04:04.856Z,17.1
2022-11-15T14:04:52.259Z,15.8
2022-11-15T14:05:39.534Z,12.8
2022-11-15T14:06:26.874Z,17.4
2022-11-15T14:07:14.233Z,17.4
2022-11-15T14:08:01.530Z,13.9
2022-11-15T14:08:48.834Z,15.0
2022-11-15T14:09:36.300Z,14.4
2022-11-15T14:10:23.567Z,15.1
2022-11-15T14:11:10.861Z,13.1
2022-11-15T14:11:58.195Z,15.6
2022-11-15T14:12:45.455Z,12.8
2022-11-15T14:13:32.738Z,15.0
2022-11-15T14:14:20.090Z,13.4
2022-11-15T14:15:07.355Z,15.8
2022-11-15T14:15:54.642Z,15.9
2022-11-15T14:16:42.191Z,15.3
2022-11-15T14:17:29.476Z,12.7
2022-11-15T14:18:16.761Z,13.3
2022-11-15T14:19:04.122Z,12.3
2022-11-15T14:19:51.407Z,9.8
2022-11-15T14:20:38.679Z,15.6
2022-11-15T14:21:26.091Z,12.8
2022-11-15T14:22:13.404Z,10.7
2022-11-15T14:23:00.694Z,11.3
2022-11-15T14:23:48.090Z,10.6
2022-11-15T14:24:35.376Z,13.0
2022-11-15T14:25:22.707Z,11.9
2022-11-15T14:26:11.975Z,12.9
2022-11-15T14:26:59.568Z,12.6
2022-11-15T14:27:46.880Z,12.7
2022-11-15T14:28:34.763Z,9.5
2022-11-15T14:29:22.276Z,10.7
2022-11-15T14:30:09.588Z,12.8
2022-11-15T14:30:56.869Z,15.2
2022-11-15T14:31:44.234Z,9.0
2022-11-15T14:32:31.536Z,10.6
2022-11-15T14:33:18.826Z,11.0
2022-11-15T14:34:06.100Z,13.5
2022-11-15T14:34:53.568Z,11.9
2022-11-15T14:35:40.846Z,10.5
2022-11-15T14:36:28.254Z,15.9
2022-11-15T14:37:15.563Z,11.2
2022-11-15T14:38:02.839Z,11.4
2022-11-15T14:38:50.119Z,17.1
2022-11-15T14:39:37.592Z,13.4
2022-11-15T14:40:24.868Z,13.8
2022-11-15T14:41:12.126Z,11.6
2022-11-15T14:41:59.580Z,17.4
2022-11-15T14:42:46.860Z,20.2
2022-11-15T14:43:34.111Z,17.8
2022-11-15T14:44:21.612Z,18.7
2022-11-15T14:45:08.892Z,21.6
2022-11-15T14:45:56.187Z,17.6
2022-11-15T14:46:43.617Z,17.7
2022-11-15T14:47:30.913Z,20.3
2022-11-15T14:48:18.234Z,13.8
2022-11-15T14:49:05.628Z,18.2
2022-11-15T14:49:52.911Z,16.3
2022-11-15T14:50:40.204Z,14.1
2022-11-15T14:51:27.615Z,19.7
2022-11-15T14:52:14.944Z,139.2
2022-11-15T14:53:02.311Z,121.0
2022-11-15T14:53:49.796Z,38.9
2022-11-15T14:54:37.146Z,46.9
2022-11-15T14:55:24.556Z,61.7
2022-11-15T14:56:12.007Z,104.6
2022-11-15T14:56:59.316Z,92.0
2022-11-15T14:57:46.645Z,85.7
2022-11-15T14:58:34.379Z,74.2
2022-11-15T14:59:22.051Z,64.7
2022-11-15T15:00:09.351Z,58.8
2022-11-15T15:00:56.658Z,57.5
2022-11-15T15:01:44.131Z,54.1
2022-11-15T15:02:31.440Z,61.9
2022-11-15T15:03:18.784Z,41.6
2022-11-15T15:04:06.168Z,54.0
2022-11-15T15:04:53.746Z,44.8
2022-11-15T15:05:41.031Z,48.4
2022-11-15T15:06:28.510Z,39.1
2022-11-15T15:07:15.977Z,104.8
2022-11-15T15:08:03.511Z,101.2